Accueil
METAR-TAF:

METAR-TAF

Aéroports :

Laupheim, Allemagne

latitude: 48-13N, longitude: 009-55E, altitude: 538 m

Observation

Le bulletin a été fait il y a 53 minutes, à 19:20 UTC
Vent 10 kt de est/nord-est
Température -3°C
Humidité 80%
Pression 1013 hPa
Visibilité: 9000 m
Ciel couvert à une hauteur de 2200 ft

METAR: ETHL 231920Z 06010KT 9000 OVC022 M03/M06 Q1013 WHT

Heure: 21:13 (20:13 UTC)

Prévision

Le bulletin a été fait il y a 9 heures et 22 minutes, à 10:51 UTC
Prévision valable du 23 à 09 UTC au 23 à 18 UTC
Vent 10 kt de est/nord-est avec des rafales jusqu'à 25 kt
Visibilité: 1100 m
Ciel couvert à une hauteur de 1200 ft

TAF: ETHL 231051Z 2309/2318 06010G25KT 9000 NSW OVC012 CANCEL 1100

Observations et prévisions météorologiques de plus de 4000 aéroports (messages METAR et TAF).

Les stations disponibles sont représentées par des disques jaunes et rouges sur la carte.

Passer la souris dessus pour voir le nom de la station.

Cliquer dessus pour voir les observations et prévisions météorologiques.

Pour changer de carte: cliquez sur les boutons verts avec une croix noire pour zoomer, sur le bouton vert avec un tiret pour effectuer un zoom arrière, ou sur les flèches vertes pour les cartes adjacentes.


METAR-TAF: